KPSP/PSP METAR and TAF weather

Enter ICAO airport designator
Station Type Date Time Source
KPSP METAR 2020/09/18 06:53 UTC NOAA

KPSP 180653Z AUTO 00000KT 10SM CLR 31/03 A2984 RMK AO2 SLP097 T03110028


Station Type Date Time Source
KPSP Decoded METAR 2020/09/18 06:53 UTC NOAA

PALM SPRINGS REGIONAL AIRPORT , CA, United States (KPSP) 33-50N 116-30W 135M
Sep 18, 2020 - 02:53 AM EDT / 2020.09.18 0653 UTC
Wind: Calm:0
Visibility: 10 mile(s):0
Sky conditions: clear
Temperature: 88.0 F (31.1 C)
Dew Point: 37.0 F (2.8 C)
Relative Humidity: 16%
Pressure (altimeter): 29.84 in. Hg (1010 hPa)
ob: KPSP 180653Z AUTO 00000KT 10SM CLR 31/03 A2984 RMK AO2 SLP097 T03110028
cycle: 7

Station Type Date Time Source
KPSP TAF 2020/09/18 06:22 UTC NOAA

TAF KPSP 180520Z 1806/1906 VRB05KT P6SM SCT150
FM182200 33010G18KT P6SM FEW200
FM190400 33007KT P6SM FEW250

Example: see airport list